createdAt,value
2023-01-17T00:00:10.824Z,4.17
2023-01-17T00:02:16.692Z,4.60
2023-01-17T00:04:37.224Z,4.23
2023-01-17T00:06:57.465Z,4.17
2023-01-17T00:09:18.615Z,4.33
2023-01-17T00:11:20.318Z,4.20
2023-01-17T00:13:21.999Z,4.80
2023-01-17T00:15:24.896Z,4.33
2023-01-17T00:17:28.754Z,4.30
2023-01-17T00:19:49.051Z,4.23
2023-01-17T00:22:09.323Z,4.20
2023-01-17T00:24:29.546Z,4.87
2023-01-17T00:26:31.786Z,4.53
2023-01-17T00:28:38.260Z,4.57
2023-01-17T00:30:39.914Z,4.47
2023-01-17T00:32:41.581Z,5.00
2023-01-17T00:34:43.303Z,4.77
2023-01-17T00:36:47.321Z,5.20
2023-01-17T00:38:50.158Z,5.00
2023-01-17T00:40:52.242Z,4.87
2023-01-17T00:42:53.853Z,5.00
2023-01-17T00:45:14.254Z,4.67
2023-01-17T00:47:37.196Z,5.20
2023-01-17T00:49:58.350Z,4.30
2023-01-17T00:52:19.688Z,4.40
2023-01-17T00:54:40.565Z,5.30
2023-01-17T00:57:00.739Z,4.97
2023-01-17T00:59:21.113Z,5.63
2023-01-17T01:01:41.630Z,5.63
2023-01-17T01:04:02.369Z,5.33
2023-01-17T01:06:25.746Z,4.90
2023-01-17T01:08:49.045Z,5.17
2023-01-17T01:11:09.107Z,5.30
2023-01-17T01:13:30.731Z,5.20
2023-01-17T01:15:50.923Z,5.30
2023-01-17T01:18:11.209Z,5.00
2023-01-17T01:20:31.675Z,5.47
2023-01-17T01:22:51.857Z,5.40
2023-01-17T01:25:15.105Z,4.77
2023-01-17T01:27:35.275Z,4.83
2023-01-17T01:29:55.353Z,5.47
2023-01-17T01:32:18.537Z,4.93
2023-01-17T01:34:25.313Z,5.10
2023-01-17T01:36:29.110Z,5.07
2023-01-17T01:38:32.081Z,5.47
2023-01-17T01:40:41.045Z,5.17
2023-01-17T01:42:57.287Z,4.97
2023-01-17T01:44:59.069Z,5.60
2023-01-17T01:47:01.116Z,5.80
2023-01-17T01:49:18.664Z,5.83
2023-01-17T01:51:29.237Z,4.90
2023-01-17T01:53:34.681Z,4.80
2023-01-17T01:55:40.713Z,5.40
2023-01-17T01:57:47.140Z,5.30
2023-01-17T01:59:54.295Z,5.30
2023-01-17T02:01:58.164Z,5.17
2023-01-17T02:04:00.240Z,5.47
2023-01-17T02:06:14.170Z,5.03
2023-01-17T02:08:19.935Z,5.40
2023-01-17T02:10:21.684Z,5.23
2023-01-17T02:12:24.159Z,5.50
2023-01-17T02:14:25.837Z,6.03
2023-01-17T02:17:02.894Z,5.33
2023-01-17T02:19:07.377Z,5.37
2023-01-17T02:21:25.202Z,5.30
2023-01-17T02:24:04.528Z,5.67
2023-01-17T02:26:20.798Z,5.37
2023-01-17T02:28:43.934Z,5.90
2023-01-17T02:30:51.373Z,5.40
2023-01-17T02:33:18.855Z,6.27
2023-01-17T02:36:05.367Z,6.40
2023-01-17T02:38:39.346Z,6.40
2023-01-17T02:41:07.851Z,6.07
2023-01-17T02:43:14.928Z,5.67
2023-01-17T02:45:18.709Z,6.10
2023-01-17T02:47:28.979Z,5.20
2023-01-17T02:49:32.407Z,5.07
2023-01-17T02:51:36.688Z,5.73
2023-01-17T02:53:47.303Z,5.70
2023-01-17T02:56:13.017Z,5.17
2023-01-17T02:58:35.687Z,5.20
2023-01-17T03:01:03.002Z,5.80
2023-01-17T03:03:14.534Z,5.97
2023-01-17T03:05:23.654Z,5.83
2023-01-17T03:07:28.419Z,5.23
2023-01-17T03:09:31.741Z,5.80
2023-01-17T03:11:33.893Z,5.43
2023-01-17T03:13:38.735Z,5.50
2023-01-17T03:15:40.973Z,4.93
2023-01-17T03:17:49.547Z,4.73
2023-01-17T03:19:53.365Z,4.73
2023-01-17T03:21:55.105Z,4.90
2023-01-17T03:23:56.763Z,4.90
2023-01-17T03:25:58.481Z,5.00
2023-01-17T03:28:00.164Z,5.13
2023-01-17T03:30:05.081Z,4.90
2023-01-17T03:32:06.833Z,4.60
2023-01-17T03:34:08.974Z,4.47
2023-01-17T03:36:11.939Z,4.30
2023-01-17T03:38:14.477Z,4.60
2023-01-17T03:40:17.884Z,4.70
2023-01-17T03:42:19.626Z,4.77
2023-01-17T03:44:21.261Z,4.20
2023-01-17T03:46:28.508Z,4.30
2023-01-17T03:48:34.386Z,4.23
2023-01-17T03:50:36.101Z,4.67
2023-01-17T03:52:37.741Z,3.90
2023-01-17T03:54:39.415Z,3.70
2023-01-17T03:56:41.067Z,3.83
2023-01-17T03:58:42.768Z,3.77
2023-01-17T04:00:44.410Z,3.97
2023-01-17T04:02:48.303Z,3.60
2023-01-17T04:04:53.810Z,4.37
2023-01-17T04:06:57.997Z,3.77
2023-01-17T04:08:59.691Z,4.37
2023-01-17T04:11:01.403Z,4.03
2023-01-17T04:13:03.081Z,4.33
2023-01-17T04:15:05.304Z,4.53
2023-01-17T04:17:10.779Z,4.63
2023-01-17T04:19:15.756Z,4.50
2023-01-17T04:21:17.449Z,4.87
2023-01-17T04:23:22.960Z,5.20
2023-01-17T04:25:25.842Z,4.80
2023-01-17T04:27:27.565Z,5.03
2023-01-17T04:29:29.267Z,5.00
2023-01-17T04:31:30.947Z,5.20
2023-01-17T04:33:32.847Z,5.47
2023-01-17T04:35:35.619Z,4.90
2023-01-17T04:37:37.681Z,4.90
2023-01-17T04:39:39.412Z,5.07
2023-01-17T04:41:41.118Z,4.73
2023-01-17T04:43:42.830Z,4.93
2023-01-17T04:45:44.612Z,5.23
2023-01-17T04:47:46.399Z,4.53
2023-01-17T04:49:48.945Z,4.37
2023-01-17T04:51:53.147Z,4.80
2023-01-17T04:53:54.891Z,4.90
2023-01-17T04:55:57.102Z,5.83
2023-01-17T04:58:01.060Z,5.57
2023-01-17T05:00:04.364Z,5.20
2023-01-17T05:02:06.354Z,4.73
2023-01-17T05:04:08.114Z,4.77
2023-01-17T05:06:11.155Z,6.90
2023-01-17T05:08:12.965Z,19.90
2023-01-17T05:10:14.666Z,9.83
2023-01-17T05:12:16.360Z,9.50
2023-01-17T05:14:20.399Z,7.87
2023-01-17T05:16:24.452Z,8.23
2023-01-17T05:18:26.311Z,8.73
2023-01-17T05:20:27.995Z,10.33
2023-01-17T05:22:29.609Z,14.07
2023-01-17T05:24:32.238Z,9.13
2023-01-17T05:26:33.970Z,6.67
2023-01-17T05:28:35.646Z,6.27
2023-01-17T05:30:37.674Z,6.30
2023-01-17T05:32:39.321Z,6.27
2023-01-17T05:34:41.002Z,5.67
2023-01-17T05:36:42.775Z,5.23
2023-01-17T05:38:44.411Z,6.03
2023-01-17T05:40:46.113Z,5.67
2023-01-17T05:42:51.282Z,5.60
2023-01-17T05:44:55.805Z,5.80
2023-01-17T05:46:57.600Z,5.30
2023-01-17T05:48:59.551Z,5.73
2023-01-17T05:51:01.743Z,5.20
2023-01-17T05:53:12.478Z,5.60
2023-01-17T05:55:14.254Z,5.13
2023-01-17T05:57:18.164Z,4.60
2023-01-17T05:59:28.710Z,5.13
2023-01-17T06:01:38.042Z,5.20
2023-01-17T06:03:39.689Z,6.50
2023-01-17T06:05:42.069Z,6.97
2023-01-17T06:07:45.220Z,6.97
2023-01-17T06:09:47.022Z,6.63
2023-01-17T06:11:48.659Z,6.50
2023-01-17T06:13:50.417Z,6.77
2023-01-17T06:15:52.127Z,7.20
2023-01-17T06:17:54.028Z,6.90
2023-01-17T06:19:55.746Z,6.47
2023-01-17T06:21:57.474Z,6.20
2023-01-17T06:23:59.229Z,8.43
2023-01-17T06:26:03.722Z,9.03
2023-01-17T06:28:10.969Z,10.10
2023-01-17T06:30:12.982Z,9.47
2023-01-17T06:32:14.686Z,9.03
2023-01-17T06:34:16.365Z,8.93
2023-01-17T06:36:18.028Z,7.97
2023-01-17T06:38:22.346Z,8.20
2023-01-17T06:40:28.749Z,7.43
2023-01-17T06:42:31.106Z,8.47
2023-01-17T06:44:32.829Z,7.73
2023-01-17T06:46:36.613Z,7.60
2023-01-17T06:48:38.317Z,7.40
2023-01-17T06:50:40.045Z,8.10
2023-01-17T06:52:42.519Z,8.03
2023-01-17T06:54:44.247Z,7.93
2023-01-17T06:56:45.900Z,7.27
2023-01-17T06:58:53.678Z,7.17
2023-01-17T07:00:55.439Z,7.13
2023-01-17T07:02:57.363Z,6.83
2023-01-17T07:05:02.218Z,6.60
2023-01-17T07:07:03.963Z,5.97
2023-01-17T07:09:05.786Z,6.07
2023-01-17T07:11:08.280Z,6.13
2023-01-17T07:13:10.604Z,6.00
2023-01-17T07:15:13.005Z,6.17
2023-01-17T07:17:14.707Z,5.93
2023-01-17T07:19:16.423Z,5.80
2023-01-17T07:21:18.913Z,5.70
2023-01-17T07:23:25.102Z,6.47
2023-01-17T07:25:27.854Z,7.77
2023-01-17T07:27:30.666Z,7.70
2023-01-17T07:29:33.126Z,8.40
2023-01-17T07:31:36.683Z,7.47
2023-01-17T07:33:38.493Z,7.37
2023-01-17T07:35:41.485Z,6.83
2023-01-17T07:37:50.697Z,7.70
2023-01-17T07:39:53.881Z,8.73
2023-01-17T07:41:55.568Z,7.43
2023-01-17T07:43:57.289Z,8.03
2023-01-17T07:46:01.301Z,7.87
2023-01-17T07:48:03.841Z,6.93
2023-01-17T07:50:13.779Z,7.70
2023-01-17T07:52:18.333Z,7.53
2023-01-17T07:54:21.028Z,7.77
2023-01-17T07:56:22.845Z,7.27
2023-01-17T07:58:24.533Z,7.87
2023-01-17T08:00:28.150Z,7.80
2023-01-17T08:02:29.903Z,7.40
2023-01-17T08:04:35.183Z,7.97
2023-01-17T08:06:39.226Z,7.43
2023-01-17T08:08:43.369Z,7.60
2023-01-17T08:10:45.387Z,7.47
2023-01-17T08:12:48.654Z,7.03
2023-01-17T08:14:50.318Z,7.27
2023-01-17T08:16:52.059Z,6.53
2023-01-17T08:18:56.129Z,6.97
2023-01-17T08:21:00.114Z,6.97
2023-01-17T08:23:06.460Z,6.97
2023-01-17T08:25:09.227Z,6.30
2023-01-17T08:27:11.099Z,6.80
2023-01-17T08:29:13.026Z,6.50
2023-01-17T08:31:14.846Z,6.67
2023-01-17T08:33:16.568Z,6.17
2023-01-17T08:35:19.908Z,6.37
2023-01-17T08:37:21.594Z,6.57
2023-01-17T08:39:27.530Z,6.07
2023-01-17T08:41:32.125Z,6.63
2023-01-17T08:43:36.227Z,7.43
2023-01-17T08:45:38.016Z,6.87
2023-01-17T08:47:41.218Z,7.13
2023-01-17T08:49:43.902Z,7.27
2023-01-17T08:51:45.631Z,7.77
2023-01-17T08:53:48.591Z,8.47
2023-01-17T08:55:58.571Z,8.73
2023-01-17T08:58:00.270Z,7.80
2023-01-17T09:00:02.270Z,8.00
2023-01-17T09:02:14.629Z,8.03
2023-01-17T09:04:17.809Z,7.57
2023-01-17T09:06:21.907Z,7.70
2023-01-17T09:08:23.642Z,7.10
2023-01-17T09:10:25.391Z,7.50
2023-01-17T09:12:31.967Z,7.43
2023-01-17T09:14:34.655Z,7.30
2023-01-17T09:16:36.348Z,7.37
2023-01-17T09:18:38.231Z,9.40
2023-01-17T09:20:41.155Z,10.43
2023-01-17T09:22:43.110Z,11.50
2023-01-17T09:24:46.908Z,12.90
2023-01-17T17:51:31.052Z,2.73
2023-01-17T17:53:33.670Z,2.90
2023-01-17T17:55:36.298Z,3.07
2023-01-17T17:57:38.069Z,3.37
2023-01-17T17:59:39.744Z,3.10
2023-01-17T18:01:41.755Z,2.90
2023-01-17T18:03:43.442Z,2.90
2023-01-17T18:05:46.740Z,2.93
2023-01-17T18:07:50.908Z,3.10
2023-01-17T18:09:53.882Z,2.93
2023-01-17T18:11:55.765Z,3.00
2023-01-17T18:14:01.070Z,2.70
2023-01-17T18:16:16.677Z,2.97
2023-01-17T18:18:20.813Z,3.30
2023-01-17T18:20:22.675Z,3.03
2023-01-17T18:22:24.407Z,3.20
2023-01-17T18:24:27.452Z,2.80
2023-01-17T18:26:32.628Z,3.30
2023-01-17T18:28:35.161Z,3.30
2023-01-17T18:30:38.464Z,3.40
2023-01-17T18:32:40.222Z,2.90
2023-01-17T18:34:42.286Z,3.40
2023-01-17T18:36:44.240Z,3.60
2023-01-17T18:38:47.265Z,3.20
2023-01-17T18:40:52.006Z,3.50
2023-01-17T18:42:54.367Z,3.63
2023-01-17T18:44:56.149Z,3.83
2023-01-17T18:47:04.335Z,3.57
2023-01-17T18:49:11.069Z,3.47
2023-01-17T18:51:18.089Z,3.83
2023-01-17T18:53:19.843Z,3.67
2023-01-17T18:55:21.698Z,3.60
2023-01-17T18:57:24.655Z,3.70
2023-01-17T18:59:26.407Z,3.50
2023-01-17T19:01:30.532Z,3.67
2023-01-17T19:03:32.424Z,3.63
2023-01-17T19:05:37.481Z,3.50
2023-01-17T19:07:39.214Z,3.67
2023-01-17T19:09:42.197Z,3.43
2023-01-17T19:11:47.424Z,3.83
2023-01-17T19:13:53.769Z,3.50
2023-01-17T19:16:00.069Z,3.33
2023-01-17T19:18:03.049Z,3.50
2023-01-17T19:20:07.024Z,3.90
2023-01-17T19:22:08.935Z,3.33
2023-01-17T19:24:13.150Z,3.37
2023-01-17T19:26:20.287Z,3.60
2023-01-17T19:28:22.469Z,3.50
2023-01-17T19:30:26.398Z,3.67
2023-01-17T19:32:28.097Z,3.33
2023-01-17T19:34:29.817Z,3.47
2023-01-17T19:36:34.282Z,3.50
2023-01-17T19:38:37.386Z,3.70
2023-01-17T19:40:43.610Z,3.50
2023-01-17T19:42:45.741Z,3.30
2023-01-17T19:44:47.442Z,3.47
2023-01-17T19:46:49.079Z,3.40
2023-01-17T19:48:59.431Z,3.50
2023-01-17T19:51:11.210Z,3.37
2023-01-17T19:53:12.912Z,4.13
2023-01-17T19:55:15.029Z,3.37
2023-01-17T19:57:17.763Z,3.70
2023-01-17T19:59:22.503Z,3.60
2023-01-17T20:01:28.278Z,3.47
2023-01-17T20:03:31.127Z,3.83
2023-01-17T20:05:34.269Z,3.70
2023-01-17T20:07:38.461Z,3.63
2023-01-17T20:09:40.264Z,3.43
2023-01-17T20:11:42.185Z,3.50
2023-01-17T20:13:44.620Z,3.67
2023-01-17T20:15:46.285Z,3.67
2023-01-17T20:17:47.981Z,3.97
2023-01-17T20:19:52.499Z,3.90
2023-01-17T20:21:54.924Z,3.90
2023-01-17T20:23:58.230Z,3.90
2023-01-17T20:26:00.723Z,4.07
2023-01-17T20:28:04.841Z,3.83
2023-01-17T20:30:19.716Z,3.83
2023-01-17T20:32:22.237Z,4.03
2023-01-17T20:34:25.743Z,3.80
2023-01-17T20:36:28.989Z,3.83
2023-01-17T20:38:43.364Z,3.83
2023-01-17T20:40:53.109Z,4.10
2023-01-17T20:42:54.777Z,4.30
2023-01-17T20:44:56.517Z,4.50
2023-01-17T20:46:58.326Z,3.80
2023-01-17T20:49:05.706Z,4.10
2023-01-17T20:51:10.608Z,3.87
2023-01-17T20:53:13.150Z,3.63
2023-01-17T20:55:15.046Z,3.83
2023-01-17T20:57:16.762Z,4.13
2023-01-17T20:59:21.571Z,3.70
2023-01-17T21:01:23.471Z,3.70
2023-01-17T21:03:31.010Z,4.17
2023-01-17T21:05:32.646Z,3.73
2023-01-17T21:07:39.869Z,3.87
2023-01-17T21:09:42.825Z,3.77
2023-01-17T21:11:44.521Z,4.00
2023-01-17T21:13:48.616Z,4.20
2023-01-17T21:15:53.053Z,3.70
2023-01-17T21:17:57.415Z,4.13
2023-01-17T21:19:59.170Z,4.50
2023-01-17T21:22:01.437Z,4.30
2023-01-17T21:24:04.846Z,4.60
2023-01-17T21:26:09.207Z,4.30
2023-01-17T21:28:10.918Z,4.30
2023-01-17T21:30:12.925Z,4.30
2023-01-17T21:32:14.649Z,4.53
2023-01-17T21:34:16.397Z,4.50
2023-01-17T21:36:19.582Z,4.37
2023-01-17T21:38:21.591Z,4.20
2023-01-17T21:40:29.027Z,4.30
2023-01-17T21:42:31.274Z,4.07
2023-01-17T21:44:36.645Z,4.00
2023-01-17T21:46:41.733Z,4.30
2023-01-17T21:48:44.350Z,4.10
2023-01-17T21:50:47.229Z,4.40
2023-01-17T21:52:48.960Z,4.20
2023-01-17T21:55:09.551Z,4.07
2023-01-17T21:57:32.004Z,4.13
2023-01-17T21:59:33.710Z,4.03
2023-01-17T22:01:35.944Z,4.10
2023-01-17T22:03:39.929Z,4.10
2023-01-17T22:05:41.703Z,4.47
2023-01-17T22:08:03.797Z,4.10
2023-01-17T22:10:06.599Z,3.97
2023-01-17T22:12:08.387Z,4.00
2023-01-17T22:14:14.855Z,4.33
2023-01-17T22:16:23.353Z,4.20
2023-01-17T22:18:25.217Z,4.37
2023-01-17T22:20:27.148Z,4.27
2023-01-17T22:22:32.372Z,4.50
2023-01-17T22:24:34.251Z,4.47
2023-01-17T22:26:35.978Z,4.17
2023-01-17T22:28:39.401Z,4.70
2023-01-17T22:30:41.418Z,4.50
2023-01-17T22:32:43.234Z,4.53
2023-01-17T22:34:44.946Z,4.50
2023-01-17T22:36:46.688Z,4.17
2023-01-17T22:38:48.554Z,4.73
2023-01-17T22:40:50.206Z,4.73
2023-01-17T22:42:51.977Z,4.23
2023-01-17T22:44:53.629Z,4.17
2023-01-17T22:46:55.337Z,4.20
2023-01-17T22:48:57.485Z,4.37
2023-01-17T22:51:03.376Z,4.60
2023-01-17T22:53:05.115Z,4.73
2023-01-17T22:55:09.127Z,4.60
2023-01-17T22:57:10.866Z,4.83
2023-01-17T22:59:12.664Z,4.37
2023-01-17T23:01:20.312Z,4.90
2023-01-17T23:03:22.166Z,4.43
2023-01-17T23:05:23.891Z,4.90
2023-01-17T23:07:26.918Z,4.90
2023-01-17T23:09:28.800Z,4.20
2023-01-17T23:11:38.983Z,4.77
2023-01-17T23:13:45.737Z,4.30
2023-01-17T23:16:08.126Z,4.87
2023-01-17T23:18:28.704Z,5.20
2023-01-17T23:20:30.367Z,4.50
2023-01-17T23:22:33.911Z,4.70
2023-01-17T23:24:42.895Z,4.73
2023-01-17T23:27:04.533Z,4.80
2023-01-17T23:29:06.269Z,4.50
2023-01-17T23:31:12.398Z,4.90
2023-01-17T23:33:16.167Z,5.07
2023-01-17T23:35:19.923Z,4.63
2023-01-17T23:37:23.148Z,4.67
2023-01-17T23:39:25.522Z,4.67
2023-01-17T23:41:57.256Z,4.33
2023-01-17T23:43:59.209Z,5.00
2023-01-17T23:46:01.698Z,4.37
2023-01-17T23:48:05.698Z,4.50
2023-01-17T23:50:08.094Z,4.10
2023-01-17T23:52:10.886Z,4.43
2023-01-17T23:54:12.728Z,4.90
2023-01-17T23:56:20.787Z,4.73
2023-01-17T23:58:25.165Z,4.50
